Time;durP1;ratioP1;P1;durP2;ratioP2;P2;SDS_P1;SDS_P2;PMS_P1;PMS_P2;Temp;Humidity;BMP_temperature;BMP_pressure;BME280_temperature;BME280_humidity;BME280_pressure;Samples;Min_cycle;Max_cycle;Signal;HPM_P1;HPM_P2
2022/02/18 00:00:17;;;;;;;17.58;3.65;;;;;;;8.43;66.45;100085.78;5079794;28;20048;-93
2022/02/18 00:02:45;;;;;;;16.45;3.70;;;;;;;8.49;66.26;100088.16;5059462;28;20055;-92
2022/02/18 00:05:15;;;;;;;23.52;3.42;;;;;;;8.09;67.05;100030.94;5085662;28;20054;-93
2022/02/18 00:07:44;;;;;;;26.10;3.43;;;;;;;7.99;67.57;100027.84;5077771;28;20079;-93
2022/02/18 00:10:13;;;;;;;25.33;3.20;;;;;;;8.14;67.93;100044.78;5084881;28;20473;-93
2022/02/18 00:12:41;;;;;;;21.88;3.35;;;;;;;8.27;67.60;100050.38;5077538;28;20596;-92
2022/02/18 00:15:20;;;;;;;14.95;3.67;;;;;;;8.39;68.10;100094.75;5088955;28;20498;-93
2022/02/18 00:18:02;;;;;;;25.27;4.25;;;;;;;8.27;68.24;100077.63;5086248;28;20052;-92
2022/02/18 00:20:45;;;;;;;19.67;3.50;;;;;;;8.14;68.91;100067.66;5079596;28;20527;-93
2022/02/18 00:23:14;;;;;;;21.02;4.00;;;;;;;7.86;69.20;100049.50;5085285;28;20044;-92
2022/02/18 00:25:51;;;;;;;26.45;3.70;;;;;;;7.91;69.65;100050.16;5078228;28;20051;-92
2022/02/18 00:28:19;;;;;;;22.40;4.00;;;;;;;7.85;70.05;100053.91;5088022;28;20052;-93
2022/02/18 00:30:46;;;;;;;20.27;4.25;;;;;;;7.96;70.18;100078.06;5087956;28;20052;-92
2022/02/18 00:33:19;;;;;;;18.83;3.60;;;;;;;7.86;70.54;100063.53;5069560;28;20411;-93
2022/02/18 00:35:46;;;;;;;20.17;4.25;;;;;;;7.72;71.07;100058.81;5089363;28;20590;-93
2022/02/18 00:38:24;;;;;;;18.05;3.63;;;;;;;7.98;71.24;100113.13;5069515;28;20091;-94
2022/02/18 00:40:56;;;;;;;24.25;4.20;;;;;;;8.02;71.17;100109.47;5066874;28;20075;-93
2022/02/18 00:43:29;;;;;;;19.70;2.95;;;;;;;8.04;71.44;100109.38;5066743;28;20064;-92
2022/02/18 00:45:57;;;;;;;25.75;4.13;;;;;;;7.78;71.77;100075.31;5062157;28;20048;-92
2022/02/18 00:48:28;;;;;;;20.17;3.65;;;;;;;7.72;71.85;100074.63;5071170;28;20553;-93
2022/02/18 00:50:55;;;;;;;28.45;4.13;;;;;;;7.69;72.30;100073.91;5063600;28;20076;-93
2022/02/18 00:53:30;;;;;;;23.35;3.80;;;;;;;7.82;72.65;100098.84;5063883;28;20106;-92
2022/02/18 00:56:01;;;;;;;21.35;3.90;;;;;;;7.91;72.39;100095.81;5064339;28;20048;-92
2022/02/18 00:58:31;;;;;;;15.07;2.65;;;;;;;7.96;71.74;100096.50;5074068;28;20052;-93
2022/02/18 01:01:01;;;;;;;23.75;4.15;;;;;;;7.88;71.92;100074.84;5066149;28;20047;-92
2022/02/18 01:03:29;;;;;;;24.00;4.65;;;;;;;8.15;71.35;100104.53;5065971;28;20049;-92
2022/02/18 01:05:56;;;;;;;20.85;3.97;;;;;;;7.95;72.08;100075.47;5062851;28;20415;-93
2022/02/18 01:08:23;;;;;;;25.00;3.80;;;;;;;8.16;72.14;100106.25;5040676;28;20044;-92
2022/02/18 01:10:50;;;;;;;25.10;5.05;;;;;;;8.06;71.84;100089.06;5062086;28;20044;-92
2022/02/18 01:13:19;;;;;;;20.23;3.97;;;;;;;7.98;71.83;100067.44;5066379;28;20045;-93
2022/02/18 01:15:46;;;;;;;21.95;3.85;;;;;;;8.01;72.05;100085.78;5068765;28;20045;-92
2022/02/18 01:18:21;;;;;;;25.55;4.93;;;;;;;7.87;72.04;100062.59;5061175;28;20517;-94
2022/02/18 01:20:57;;;;;;;25.05;3.88;;;;;;;8.06;72.11;100094.34;5064519;28;20075;-94
2022/02/18 01:23:24;;;;;;;22.05;4.03;;;;;;;7.96;72.30;100082.47;5064415;28;20483;-92
2022/02/18 01:25:51;;;;;;;31.67;4.55;;;;;;;7.81;72.26;100057.59;5063817;28;20041;-93
2022/02/18 01:28:18;;;;;;;20.92;3.55;;;;;;;8.15;72.37;100115.06;5067437;28;20048;-92
2022/02/18 01:30:45;;;;;;;20.13;3.90;;;;;;;7.99;72.24;100095.53;5064894;28;20086;-92
2022/02/18 01:33:18;;;;;;;23.27;3.85;;;;;;;8.08;72.47;100108.31;5062835;28;20045;-92
2022/02/18 01:35:45;;;;;;;22.98;3.45;;;;;;;7.91;72.11;100074.75;5068763;28;20056;-93
2022/02/18 01:38:27;;;;;;;20.42;3.70;;;;;;;7.83;72.13;100055.75;5066532;28;20120;-92
2022/02/18 01:40:56;;;;;;;27.50;4.88;;;;;;;7.99;71.88;100088.47;5066322;28;20044;-95
2022/02/18 01:43:25;;;;;;;16.33;3.20;;;;;;;7.93;72.30;100075.53;5075884;28;20041;-93
2022/02/18 01:45:55;;;;;;;21.42;4.25;;;;;;;8.07;71.76;100102.19;5067989;28;20494;-93
2022/02/18 01:48:22;;;;;;;26.13;4.80;;;;;;;7.90;72.07;100058.97;5074955;28;20099;-92
2022/02/18 01:50:51;;;;;;;24.90;3.97;;;;;;;8.09;71.64;100083.66;5058109;28;20048;-92
2022/02/18 01:53:18;;;;;;;26.73;4.28;;;;;;;7.98;71.19;100051.63;5064911;28;20557;-91
2022/02/18 01:55:47;;;;;;;25.25;3.90;;;;;;;7.99;70.93;100043.66;5059948;28;20044;-93
2022/02/18 01:58:15;;;;;;;25.63;3.90;;;;;;;8.14;71.04;100080.84;5060305;28;20052;-94
2022/02/18 02:00:43;;;;;;;20.65;3.80;;;;;;;7.91;71.48;100042.25;5059402;28;20037;-92
2022/02/18 02:03:10;;;;;;;26.60;4.07;;;;;;;8.25;70.52;100091.78;5063657;28;20052;-93
2022/02/18 02:05:37;;;;;;;23.20;4.07;;;;;;;7.92;70.46;100036.06;5064510;28;20114;-92
2022/02/18 02:08:05;;;;;;;20.35;3.80;;;;;;;8.17;70.51;100075.44;5064816;28;20175;-92
2022/02/18 02:10:33;;;;;;;18.60;3.20;;;;;;;8.10;70.14;100069.56;5062095;28;20052;-93
2022/02/18 02:13:02;;;;;;;22.23;3.72;;;;;;;8.02;70.13;100040.91;5042698;28;20044;-92
2022/02/18 02:15:33;;;;;;;24.73;4.15;;;;;;;8.32;70.46;100088.03;5064209;28;20052;-93
2022/02/18 02:18:23;;;;;;;19.20;3.40;;;;;;;8.19;70.15;100074.44;5076224;28;20052;-91
2022/02/18 02:21:03;;;;;;;21.63;3.42;;;;;;;8.19;69.82;100057.75;5071805;28;20143;-92
2022/02/18 02:23:34;;;;;;;19.35;3.78;;;;;;;8.14;69.44;100034.25;5067618;28;20373;-93
2022/02/18 02:26:00;;;;;;;22.10;3.80;;;;;;;8.39;68.69;100063.06;5062997;28;20068;-93
2022/02/18 02:28:28;;;;;;;17.55;3.03;;;;;;;8.20;68.42;100036.59;5059696;28;20052;-94
2022/02/18 02:30:55;;;;;;;20.92;3.40;;;;;;;8.26;68.18;100031.06;5059299;28;20048;-93
2022/02/18 02:33:23;;;;;;;22.05;3.95;;;;;;;8.30;68.01;100037.94;5054685;28;20052;-92
2022/02/18 02:35:51;;;;;;;17.00;3.60;;;;;;;8.33;67.28;100021.16;5062904;28;20056;-92
2022/02/18 02:38:20;;;;;;;17.70;3.15;;;;;;;8.37;66.93;100036.75;5060947;28;20061;-92
2022/02/18 02:41:01;;;;;;;19.38;4.32;;;;;;;8.39;66.83;100034.91;5064559;28;20072;-92
2022/02/18 02:43:28;;;;;;;19.48;2.80;;;;;;;8.28;66.06;100004.63;5063073;28;20076;-93
2022/02/18 02:45:55;;;;;;;13.10;2.65;;;;;;;8.26;66.28;100001.19;5067471;28;20052;-92
2022/02/18 02:48:22;;;;;;;20.17;2.80;;;;;;;8.34;66.36;100009.69;5047758;28;20046;-91
2022/02/18 02:50:53;;;;;;;15.48;2.88;;;;;;;8.27;66.23;99993.22;5065480;28;20056;-92
2022/02/18 02:53:34;;;;;;;16.20;2.38;;;;;;;8.21;66.18;99985.56;5061672;28;20053;-92
2022/02/18 02:56:16;;;;;;;14.52;2.35;;;;;;;8.34;66.10;100009.69;5058474;28;20037;-92
2022/02/18 02:58:43;;;;;;;14.50;2.58;;;;;;;8.51;65.79;100015.03;5062006;28;20041;-94
2022/02/18 03:01:13;;;;;;;11.45;2.35;;;;;;;8.42;65.87;100007.53;5062336;28;20098;-92
2022/02/18 03:03:55;;;;;;;15.73;2.93;;;;;;;8.18;65.72;99956.69;5064139;28;20494;-92
2022/02/18 03:06:24;;;;;;;17.42;3.17;;;;;;;8.27;66.02;99971.25;5066394;28;20041;-92
2022/02/18 03:08:51;;;;;;;16.17;3.00;;;;;;;8.22;65.80;99973.22;5062686;28;20037;-93
2022/02/18 03:11:24;;;;;;;16.77;3.08;;;;;;;8.42;65.89;100023.38;5063000;28;20053;-92
2022/02/18 03:13:53;;;;;;;13.38;2.30;;;;;;;8.28;66.36;99996.72;5064469;28;20112;-93
2022/02/18 03:16:21;;;;;;;15.90;2.70;;;;;;;8.38;66.42;100005.94;5067743;28;20037;-92
2022/02/18 03:18:52;;;;;;;17.50;3.17;;;;;;;8.39;66.52;100007.66;5062208;28;20488;-92
2022/02/18 03:21:22;;;;;;;13.43;2.33;;;;;;;8.43;66.94;100033.88;5058807;28;20044;-92
2022/02/18 03:23:49;;;;;;;19.53;3.37;;;;;;;8.32;66.70;100000.97;5050520;28;20051;-93
2022/02/18 03:26:19;;;;;;;17.25;3.08;;;;;;;8.18;67.24;99977.81;5063105;28;20503;-91
2022/02/18 03:28:47;;;;;;;16.50;3.08;;;;;;;8.25;68.14;99992.41;5061935;28;20136;-93
2022/02/18 03:31:14;;;;;;;19.75;3.10;;;;;;;8.10;67.98;99956.16;5064660;28;20048;-92
2022/02/18 03:33:42;;;;;;;21.17;3.63;;;;;;;8.29;68.32;99999.28;5064406;28;20523;-93
2022/02/18 03:36:10;;;;;;;22.92;3.78;;;;;;;8.16;68.78;99987.56;5063982;28;20045;-92
2022/02/18 03:38:42;;;;;;;18.52;3.22;;;;;;;8.27;69.37;100002.91;5068244;28;20059;-91
2022/02/18 03:41:09;;;;;;;19.48;3.40;;;;;;;8.23;69.05;99980.22;5063689;28;20041;-93
2022/02/18 03:43:42;;;;;;;17.48;3.60;;;;;;;8.19;69.30;99976.00;5065009;28;20106;-92
2022/02/18 03:46:17;;;;;;;23.10;3.33;;;;;;;8.20;69.67;99975.06;5073028;28;20510;-92
2022/02/18 03:48:47;;;;;;;18.40;3.20;;;;;;;8.25;69.88;100000.34;5069371;28;20135;-93
2022/02/18 03:51:14;;;;;;;21.27;3.67;;;;;;;8.15;70.37;99991.13;5071681;28;20068;-93
2022/02/18 03:53:41;;;;;;;20.48;3.20;;;;;;;8.16;71.07;99982.28;5070053;28;20494;-93
2022/02/18 03:56:22;;;;;;;20.17;3.75;;;;;;;8.28;70.49;100005.47;5065318;28;20056;-92
2022/02/18 03:58:49;;;;;;;21.15;3.88;;;;;;;8.16;71.36;99978.78;5063071;28;20052;-93
2022/02/18 04:01:29;;;;;;;25.90;3.70;;;;;;;7.99;72.06;99955.78;5065016;28;20559;-93
2022/02/18 04:04:00;;;;;;;21.40;3.78;;;;;;;8.04;72.24;99959.91;5062712;28;20045;-92
2022/02/18 04:06:32;;;;;;;22.33;3.55;;;;;;;7.93;72.47;99938.44;5062837;28;20041;-91
2022/02/18 04:08:59;;;;;;;22.80;4.00;;;;;;;8.12;72.49;99959.59;5048131;28;20047;-93
2022/02/18 04:11:30;;;;;;;28.02;4.72;;;;;;;8.03;72.79;99952.94;5063412;28;20479;-92
2022/02/18 04:14:01;;;;;;;17.65;3.38;;;;;;;8.07;73.33;99965.06;5067847;28;20060;-92
2022/02/18 04:16:28;;;;;;;18.23;3.90;;;;;;;7.88;72.82;99921.97;5067198;28;20048;-92
2022/02/18 04:18:58;;;;;;;20.73;3.55;;;;;;;7.78;73.65;99889.03;5068757;28;20080;-92
2022/02/18 04:21:25;;;;;;;22.80;4.30;;;;;;;7.74;73.50;99890.94;5066033;28;20041;-92
2022/02/18 04:23:57;;;;;;;22.92;3.97;;;;;;;7.72;73.84;99889.28;5069686;28;20057;-93
2022/02/18 04:26:26;;;;;;;22.92;4.10;;;;;;;7.68;74.67;99885.09;5065149;28;20131;-92
2022/02/18 04:28:53;;;;;;;19.02;4.10;;;;;;;7.77;75.14;99895.22;5059480;28;20119;-91
2022/02/18 04:31:23;;;;;;;22.80;4.15;;;;;;;7.61;75.35;99871.31;5065668;28;20049;-92
2022/02/18 04:33:55;;;;;;;23.48;4.72;;;;;;;7.92;75.71;99920.91;5062594;28;20047;-93
2022/02/18 04:36:22;;;;;;;27.08;4.85;;;;;;;7.81;76.08;99893.31;5062445;28;20053;-93
2022/02/18 04:38:50;;;;;;;22.23;4.03;;;;;;;7.77;76.60;99876.75;5072653;28;20048;-92
2022/02/18 04:41:17;;;;;;;25.73;4.25;;;;;;;7.88;76.58;99881.56;5065530;28;20044;-92
2022/02/18 04:43:45;;;;;;;27.30;4.15;;;;;;;7.80;76.62;99847.66;5066444;28;20044;-93
2022/02/18 04:46:14;;;;;;;27.10;4.32;;;;;;;7.86;77.17;99846.53;5066292;28;20451;-91
2022/02/18 04:48:54;;;;;;;28.35;4.60;;;;;;;7.92;77.01;99856.78;5075920;28;20075;-93
2022/02/18 04:51:25;;;;;;;27.63;4.60;;;;;;;7.99;77.49;99876.69;5070550;28;20098;-92
2022/02/18 04:54:00;;;;;;;23.23;4.00;;;;;;;7.68;77.06;99827.09;5079520;28;20053;-92
2022/02/18 04:56:34;;;;;;;19.23;4.43;;;;;;;7.79;76.98;99834.53;5078122;28;20036;-92
2022/02/18 04:59:01;;;;;;;31.10;4.97;;;;;;;7.78;77.27;99836.31;5081354;28;20106;-92
2022/02/18 05:01:41;;;;;;;26.13;4.95;;;;;;;7.93;77.18;99856.72;5074390;28;20102;-92
2022/02/18 05:04:12;;;;;;;21.20;4.15;;;;;;;7.70;77.38;99817.38;5065629;28;20053;-91
2022/02/18 05:06:40;;;;;;;;;;;;;;;7.92;78.01;99844.44;5067547;28;20049;-91
2022/02/18 05:09:11;;;;;;;14.10;2.83;;;;;;;7.61;78.14;99789.63;5069626;28;19952;-93
2022/02/18 05:11:39;;;;;;;23.75;4.20;;;;;;;7.81;78.16;99823.00;5063989;28;20044;-94
2022/02/18 05:14:06;;;;;;;26.17;4.20;;;;;;;7.63;78.22;99789.56;5082497;28;20113;-93
2022/02/18 05:16:36;;;;;;;27.77;4.30;;;;;;;7.99;78.34;99855.59;5072671;28;20598;-93
2022/02/18 05:19:06;;;;;;;28.33;4.88;;;;;;;7.89;78.09;99817.38;5067970;28;20060;-92
2022/02/18 05:21:39;;;;;;;25.52;4.80;;;;;;;7.72;78.32;99789.13;5063211;28;20083;-93
2022/02/18 05:24:07;;;;;;;;;;;;;;;8.10;77.99;99833.09;5069477;28;20490;-93
2022/02/18 05:26:47;;;;;;;;;;;;;;;8.12;78.19;99826.88;5063557;28;19943;-92
2022/02/18 05:29:14;;;;;;;23.08;4.15;;;;;;;8.06;77.48;99791.94;5053373;28;20418;-93
2022/02/18 05:31:43;;;;;;;28.55;3.97;;;;;;;8.06;77.20;99770.84;5063426;28;20349;-92
2022/02/18 05:34:11;;;;;;;21.20;4.03;;;;;;;7.90;77.66;99743.50;5070902;28;20562;-91
2022/02/18 05:36:38;;;;;;;29.10;4.50;;;;;;;8.26;77.29;99793.66;5072388;28;20079;-91
2022/02/18 05:39:08;;;;;;;23.10;4.10;;;;;;;7.97;77.13;99741.44;5071816;28;20052;-92
2022/02/18 05:41:35;;;;;;;28.00;4.07;;;;;;;8.12;77.09;99746.00;5062338;28;20049;-93
2022/02/18 05:44:07;;;;;;;28.60;4.40;;;;;;;8.11;77.07;99739.00;5050676;28;20199;-93
2022/02/18 05:46:36;;;;;;;;;;;;;;;8.28;76.77;99754.88;5053250;28;20492;-93
2022/02/18 05:49:05;;;;;;;24.50;4.80;;;;;;;7.96;76.63;99698.41;5063467;28;19928;-94
2022/02/18 05:51:34;;;;;;;26.65;4.57;;;;;;;8.36;76.49;99749.25;5070363;28;20103;-94
2022/02/18 05:54:06;;;;;;;36.03;5.95;;;;;;;7.99;76.43;99681.59;5062162;28;20428;-93
2022/02/18 05:56:32;;;;;;;24.27;4.65;;;;;;;8.13;76.64;99715.19;5067491;28;20048;-92
2022/02/18 05:59:02;;;;;;;28.30;5.25;;;;;;;8.15;76.72;99719.47;5072627;28;20105;-94
2022/02/18 06:01:29;;;;;;;24.63;4.25;;;;;;;8.28;76.91;99727.66;5065038;28;20056;-93
2022/02/18 06:03:58;;;;;;;26.77;4.70;;;;;;;7.99;76.96;99673.69;5064085;28;20057;-93
2022/02/18 06:06:28;;;;;;;30.98;4.60;;;;;;;8.07;76.92;99689.97;5063795;28;20068;-93
2022/02/18 06:08:55;;;;;;;28.17;4.63;;;;;;;7.93;77.08;99666.03;5069470;28;20041;-93
2022/02/18 06:11:35;;;;;;;28.67;5.15;;;;;;;8.15;76.95;99694.88;5068906;28;20041;-92
2022/02/18 06:14:07;;;;;;;23.83;4.07;;;;;;;8.08;77.22;99678.50;5064739;28;20046;-95
2022/02/18 06:16:34;;;;;;;23.48;3.97;;;;;;;8.34;77.49;99717.66;5067492;28;20071;-93
2022/02/18 06:19:14;;;;;;;;;;;;;;;;;;;;;
2022/02/18 06:21:42;;;;;;;19.33;3.63;;;;;;;8.00;78.78;99663.06;5075312;28;20291;-93
2022/02/18 06:24:10;;;;;;;23.67;4.30;;;;;;;8.03;79.93;99688.41;5051230;28;20072;-94
2022/02/18 06:26:42;;;;;;;18.55;3.55;;;;;;;8.09;80.69;99699.53;5039142;28;20044;-93
2022/02/18 06:29:11;;;;;;;30.95;4.57;;;;;;;7.94;80.96;99668.63;5066678;28;20051;-92
2022/02/18 06:31:38;;;;;;;22.13;4.30;;;;;;;7.83;81.53;99675.31;5069790;28;20044;-94
2022/02/18 06:34:04;;;;;;;23.42;4.15;;;;;;;7.60;82.05;99643.00;5077445;28;20134;-94
2022/02/18 06:36:32;;;;;;;22.77;4.47;;;;;;;7.69;82.25;99671.56;5063623;28;20057;-93
2022/02/18 06:39:00;;;;;;;24.50;5.07;;;;;;;7.65;82.96;99663.88;5074047;28;20111;-94
2022/02/18 06:41:33;;;;;;;33.00;5.60;;;;;;;7.65;83.36;99661.22;5062658;28;20113;-96
2022/02/18 06:44:23;;;;;;;28.30;4.43;;;;;;;7.73;84.65;99674.88;5050727;28;20065;-94
2022/02/18 06:46:58;;;;;;;25.65;4.63;;;;;;;7.39;85.81;99615.03;5066977;28;20485;-93
2022/02/18 06:49:38;;;;;;;26.95;4.53;;;;;;;7.55;87.77;99645.00;5061686;28;20040;-96
2022/02/18 06:52:05;;;;;;;26.48;5.13;;;;;;;7.43;88.68;99636.78;5058771;28;20128;-94
2022/02/18 06:54:36;;;;;;;37.38;5.60;;;;;;;7.16;91.24;99609.94;5066509;28;20065;-95
2022/02/18 06:57:05;;;;;;;27.25;5.28;;;;;;;7.38;93.27;99643.16;5064666;28;20047;-94
2022/02/18 06:59:38;;;;;;;33.38;4.70;;;;;;;7.21;94.21;99613.22;5037481;28;20049;-94
2022/02/18 07:02:07;;;;;;;33.53;4.88;;;;;;;7.26;98.34;99625.25;5066124;28;20072;-94
2022/02/18 07:04:40;;;;;;;30.38;4.70;;;;;;;6.98;96.39;99591.44;5066535;28;20074;-94
2022/02/18 07:07:07;;;;;;;29.48;4.70;;;;;;;7.19;94.98;99609.81;5062952;28;20041;-94
2022/02/18 07:09:34;;;;;;;33.88;5.18;;;;;;;7.24;96.90;99597.31;5064081;28;20069;-92
2022/02/18 07:12:19;;;;;;;;;;;;;;;;;;;;;
2022/02/18 07:14:50;;;;;;;28.60;5.25;;;;;;;7.31;95.05;99591.66;5056370;28;20070;-94
2022/02/18 07:17:19;;;;;;;22.65;4.10;;;;;;;7.36;95.68;99583.56;5056386;28;20055;-95
2022/02/18 07:19:56;;;;;;;28.75;5.22;;;;;;;7.52;96.31;99597.72;5065687;28;20135;-95
2022/02/18 07:22:25;;;;;;;37.65;5.05;;;;;;;7.52;94.71;99587.19;5064516;28;20053;-93
2022/02/18 07:24:58;;;;;;;23.95;4.22;;;;;;;7.44;93.81;99564.75;5065255;28;20105;-94
2022/02/18 07:27:34;;;;;;;27.98;5.22;;;;;;;7.70;91.91;99591.59;5048848;28;20040;-92
2022/02/18 07:30:26;;;;;;;26.48;4.93;;;;;;;7.59;89.78;99551.69;5062547;28;20071;-93
2022/02/18 07:33:06;;;;;;;;;;;;;;;;;;;;;
2022/02/18 07:35:46;;;;;;;27.95;6.03;;;;;;;7.74;87.68;99545.69;5079907;28;20493;-94
2022/02/18 07:38:27;;;;;;;34.45;6.00;;;;;;;7.98;87.52;99575.28;5081368;28;20044;-93
2022/02/18 07:41:26;;;;;;;;;;;;;;;;;;;;;
2022/02/18 07:44:20;;;;;;;22.10;4.03;;;;;;;7.81;85.70;99498.81;5046454;28;20051;-93
2022/02/18 07:46:53;;;;;;;22.98;5.00;;;;;;;7.92;85.50;99496.47;5083591;28;20921;-94
2022/02/18 07:49:43;;;;;;;22.40;3.90;;;;;;;7.94;84.54;99478.81;5072543;28;20491;-94
2022/02/18 07:52:20;;;;;;;28.67;4.57;;;;;;;8.33;82.80;99510.25;5065140;28;20072;-94
2022/02/18 07:55:10;;;;;;;26.30;4.05;;;;;;;8.25;82.50;99487.78;5054199;28;20063;-95
2022/02/18 07:57:37;;;;;;;21.08;4.03;;;;;;;8.09;82.37;99449.03;5070725;28;20087;-96
2022/02/18 08:00:19;;;;;;;22.83;3.60;;;;;;;8.18;81.14;99455.63;5067495;28;20068;-94
2022/02/18 08:02:53;;;;;;;17.70;3.78;;;;;;;8.22;81.01;99441.31;5066779;28;20139;-93
2022/02/18 08:05:23;;;;;;;17.70;4.28;;;;;;;8.48;80.82;99474.28;5062140;28;20127;-90
2022/02/18 08:07:55;;;;;;;25.65;4.40;;;;;;;8.51;80.56;99465.31;5066843;28;20060;-91
2022/02/18 08:10:25;;;;;;;20.63;4.00;;;;;;;8.30;80.74;99420.69;5061641;28;20049;-90
2022/02/18 08:12:56;;;;;;;21.02;3.55;;;;;;;8.58;79.03;99464.94;5060174;28;20041;-92
2022/02/18 08:15:23;;;;;;;18.20;3.50;;;;;;;8.61;79.06;99454.22;5059175;28;20037;-91
2022/02/18 08:17:50;;;;;;;20.13;3.97;;;;;;;8.48;79.26;99425.94;5059301;28;20080;-91
2022/02/18 08:20:17;;;;;;;22.65;4.15;;;;;;;8.72;78.71;99459.75;5053237;28;20044;-92
2022/02/18 08:22:43;;;;;;;24.17;3.97;;;;;;;8.49;78.54;99417.94;5062711;28;20056;-92
2022/02/18 08:25:10;;;;;;;19.70;4.18;;;;;;;8.72;78.62;99443.94;5066466;28;20059;-93
2022/02/18 08:27:52;;;;;;;19.85;3.10;;;;;;;8.73;78.24;99426.31;5066109;28;20056;-92
2022/02/18 08:30:18;;;;;;;20.30;3.45;;;;;;;8.75;78.50;99420.00;5069578;28;20036;-90
2022/02/18 08:32:46;;;;;;;23.48;4.20;;;;;;;8.94;78.48;99442.75;5051949;28;20056;-93
2022/02/18 08:35:13;;;;;;;27.02;4.68;;;;;;;8.85;78.86;99430.03;5067181;28;20052;-92
2022/02/18 08:37:44;;;;;;;17.17;3.53;;;;;;;8.73;78.43;99387.56;5068049;28;20051;-91
2022/02/18 08:40:14;;;;;;;19.85;3.50;;;;;;;8.63;78.54;99367.91;5067456;28;20048;-94
2022/02/18 08:42:41;;;;;;;19.35;3.95;;;;;;;8.95;78.71;99418.06;5069967;28;20064;-92
2022/02/18 08:45:11;;;;;;;18.35;3.75;;;;;;;9.05;78.26;99424.53;5076878;28;20028;-92
2022/02/18 08:47:41;;;;;;;21.77;3.65;;;;;;;8.79;78.59;99363.47;5069876;28;20062;-91
2022/02/18 08:50:11;;;;;;;15.02;2.55;;;;;;;8.99;78.55;99395.81;5047167;28;20040;-93
2022/02/18 08:52:43;;;;;;;23.42;4.15;;;;;;;8.81;78.54;99367.81;5050506;28;20075;-91
2022/02/18 08:55:11;;;;;;;16.67;3.55;;;;;;;8.93;78.26;99378.53;5064086;28;20067;-91
2022/02/18 08:57:49;;;;;;;18.90;3.92;;;;;;;9.11;77.80;99379.28;5067180;28;20048;-89
2022/02/18 09:00:19;;;;;;;19.33;3.88;;;;;;;9.09;78.21;99376.72;5066625;28;20051;-90
2022/02/18 09:02:47;;;;;;;17.13;3.03;;;;;;;9.06;77.96;99358.41;5056867;28;20098;-92
2022/02/18 09:05:14;;;;;;;19.38;3.67;;;;;;;9.20;79.24;99381.38;5066026;28;20045;-91
2022/02/18 09:08:00;;;;;;;21.05;3.78;;;;;;;9.11;79.44;99358.16;5066805;28;20048;-92
2022/02/18 09:10:27;;;;;;;17.90;3.17;;;;;;;8.86;80.31;99320.88;5052778;28;20131;-91
2022/02/18 09:12:55;;;;;;;16.10;3.92;;;;;;;9.12;82.13;99358.06;5058413;28;20048;-90
2022/02/18 09:15:36;;;;;;;17.65;3.80;;;;;;;9.21;82.77;99364.59;5049869;28;20117;-92
2022/02/18 09:18:19;;;;;;;14.80;3.10;;;;;;;9.04;83.44;99323.31;5063797;28;20056;-93
2022/02/18 09:20:48;;;;;;;;;;;;;;;9.33;84.52;99358.59;5034943;28;20063;-90
2022/02/18 09:23:16;;;;;;;17.63;3.70;;;;;;;8.99;85.14;99306.88;5067289;28;19956;-90
2022/02/18 09:25:46;;;;;;;15.75;3.53;;;;;;;9.11;85.86;99327.31;5064976;28;20044;-92
2022/02/18 09:28:15;;;;;;;15.27;3.53;;;;;;;9.21;86.32;99317.06;5063694;28;20044;-91
2022/02/18 09:30:45;;;;;;;17.10;3.72;;;;;;;9.06;87.38;99273.06;5064567;28;20052;-92
2022/02/18 09:33:16;;;;;;;18.50;4.50;;;;;;;9.22;88.25;99297.63;5057104;28;20108;-92
2022/02/18 09:35:46;;;;;;;16.67;4.13;;;;;;;9.26;88.80;99283.31;5062184;28;20036;-92
2022/02/18 09:38:17;;;;;;;17.15;3.58;;;;;;;9.28;89.98;99285.88;5046035;28;20151;-91
2022/02/18 09:40:48;;;;;;;10.43;2.53;;;;;;;9.39;89.97;99291.34;5060599;28;20033;-90
2022/02/18 09:43:18;;;;;;;12.85;2.97;;;;;;;9.49;90.30;99288.06;5064383;28;20052;-91
2022/02/18 09:45:53;;;;;;;11.63;2.97;;;;;;;9.45;89.70;99268.03;5068994;28;20052;-89
2022/02/18 09:48:55;;;;;;;13.73;3.13;;;;;;;9.66;90.40;99284.41;5065919;28;20041;-89
2022/02/18 09:51:24;;;;;;;9.90;2.90;;;;;;;9.73;90.37;99279.59;5077808;28;20040;-91
2022/02/18 09:54:14;;;;;;;9.90;3.00;;;;;;;9.73;90.72;99261.09;4997336;28;20141;-90
2022/02/18 09:57:02;;;;;;;11.52;2.85;;;;;;;9.93;90.74;99271.25;4988029;28;20142;-92
2022/02/18 09:59:31;;;;;;;16.85;2.92;;;;;;;9.67;90.70;99219.16;4983956;28;20253;-90
2022/02/18 10:02:06;;;;;;;12.68;2.58;;;;;;;9.56;91.29;99209.25;4984292;28;20133;-91
2022/02/18 10:04:34;;;;;;;8.98;2.50;;;;;;;9.69;91.62;99233.13;4986654;28;20087;-91
2022/02/18 10:07:02;;;;;;;9.80;2.50;;;;;;;9.81;91.88;99222.66;4983891;28;20509;-90
2022/02/18 10:09:44;;;;;;;10.88;2.85;;;;;;;9.66;91.79;99185.75;4988104;28;20054;-90
2022/02/18 10:12:39;;;;;;;8.35;2.55;;;;;;;9.99;91.92;99223.28;4975751;28;20049;-91
2022/02/18 10:15:11;;;;;;;12.13;2.53;;;;;;;10.12;92.13;99231.28;4990339;28;20053;-90
2022/02/18 10:17:47;;;;;;;7.47;2.03;;;;;;;10.21;91.96;99211.38;4985471;28;20050;-90
2022/02/18 10:20:45;;;;;;;13.48;2.90;;;;;;;9.95;91.57;99162.75;4996694;28;20690;-91
2022/02/18 10:23:22;;;;;;;7.15;2.40;;;;;;;10.17;91.21;99176.31;4994529;28;20061;-92
2022/02/18 10:26:19;;;;;;;11.75;2.28;;;;;;;10.32;91.22;99185.06;4996240;28;20085;-90
2022/02/18 10:29:24;;;;;;;13.75;2.78;;;;;;;10.29;90.82;99142.94;4985992;28;20061;-89
2022/02/18 10:32:13;;;;;;;10.73;2.25;;;;;;;10.71;90.14;99182.44;5050705;28;20055;-91
2022/02/18 10:34:52;;;;;;;8.88;2.65;;;;;;;10.37;91.44;99130.06;5061217;28;20452;-89
2022/02/18 10:37:20;;;;;;;10.27;2.75;;;;;;;10.65;90.40;99155.53;5068283;28;20099;-90
2022/02/18 10:39:47;;;;;;;8.23;2.13;;;;;;;10.60;89.94;99132.00;5065062;28;20308;-90
2022/02/18 10:42:15;;;;;;;11.20;2.50;;;;;;;10.81;89.73;99153.56;5066184;28;20186;-90
2022/02/18 10:44:42;;;;;;;10.52;2.65;;;;;;;10.70;89.71;99125.16;5059479;28;20057;-91
2022/02/18 10:47:21;;;;;;;9.00;3.20;;;;;;;11.00;89.24;99148.72;5062700;28;20040;-91
2022/02/18 10:49:50;;;;;;;10.77;2.58;;;;;;;10.74;89.46;99096.66;5063141;28;20048;-91
2022/02/18 10:52:28;;;;;;;15.95;2.88;;;;;;;10.95;89.65;99126.13;5063994;28;20136;-89
2022/02/18 10:54:57;;;;;;;12.50;2.53;;;;;;;11.10;88.62;99125.94;5041745;28;20553;-89
2022/02/18 10:57:25;;;;;;;9.68;2.38;;;;;;;11.09;89.47;99118.09;5070455;28;20052;-93
2022/02/18 10:59:57;;;;;;;7.32;2.17;;;;;;;11.04;88.69;99105.16;5064203;28;20045;-91
2022/02/18 11:02:45;;;;;;;9.25;2.42;;;;;;;10.94;88.77;99074.13;5048403;28;20472;-92
2022/02/18 11:05:22;;;;;;;12.10;2.35;;;;;;;11.22;88.73;99105.66;5062944;28;20435;-90
2022/02/18 11:07:55;;;;;;;9.38;2.33;;;;;;;11.21;88.44;99096.03;5049864;28;20044;-89
2022/02/18 11:10:39;;;;;;;8.60;2.42;;;;;;;11.26;88.27;99080.66;5061892;28;20040;-93
2022/02/18 11:13:30;;;;;;;9.90;2.40;;;;;;;11.18;87.88;99048.53;5066865;28;20051;-96
2022/02/18 11:16:22;;;;;;;7.72;2.33;;;;;;;11.57;87.25;99089.94;5067915;28;20052;-94
2022/02/18 11:18:51;;;;;;;6.22;1.90;;;;;;;11.45;86.84;99059.00;5054867;28;20470;-92
2022/02/18 11:21:21;;;;;;;6.38;2.03;;;;;;;11.40;86.89;99048.72;5066885;28;20044;-90
2022/02/18 11:23:48;;;;;;;9.82;2.47;;;;;;;11.49;87.74;99065.78;5065495;28;20104;-89
2022/02/18 11:26:19;;;;;;;12.00;2.75;;;;;;;11.53;87.77;99038.06;5067928;28;20053;-90
2022/02/18 11:28:48;;;;;;;8.50;2.08;;;;;;;11.32;87.79;99003.38;5081791;28;20059;-90
2022/02/18 11:31:39;;;;;;;9.20;2.25;;;;;;;11.65;88.81;99050.44;5067102;28;20147;-90
2022/02/18 11:34:42;;;;;;;7.03;2.13;;;;;;;11.73;88.48;99041.94;5066208;28;20059;-91
2022/02/18 11:37:44;;;;;;;8.20;2.40;;;;;;;11.77;88.24;99025.72;5075091;28;20139;-90
2022/02/18 11:40:29;;;;;;;7.00;2.17;;;;;;;12.03;88.05;99034.41;5061539;28;20061;-92
2022/02/18 11:42:58;;;;;;;5.22;1.70;;;;;;;11.97;88.12;99010.97;5067033;28;20584;-91
2022/02/18 11:45:39;;;;;;;5.40;1.40;;;;;;;12.02;87.24;98987.59;5053910;28;20052;-90
2022/02/18 11:48:06;;;;;;;2.40;1.30;;;;;;;12.20;86.50;98988.03;5064282;28;20041;-91
2022/02/18 11:50:34;;;;;;;4.88;1.20;;;;;;;12.28;84.52;98967.03;5062403;28;20156;-90
2022/02/18 11:53:38;;;;;;;5.15;1.60;;;;;;;12.49;83.81;98969.88;5052658;28;20047;-90
2022/02/18 11:56:05;;;;;;;4.65;1.30;;;;;;;12.56;84.41;98984.38;5045813;28;20048;-91
2022/02/18 11:58:48;;;;;;;5.78;1.63;;;;;;;12.49;84.96;98970.72;5064115;28;20057;-91
2022/02/18 12:01:15;;;;;;;4.00;1.50;;;;;;;12.42;85.06;98953.59;5066403;28;20087;-91